sensor_id;sensor_type;location;lat;lon;timestamp;temperature;humidity
20759;DHT22;10539;53.686;9.158;2022-12-18T00:00:47;-3.90;99.90
20759;DHT22;10539;53.686;9.158;2022-12-18T00:03:14;-3.90;99.90
20759;DHT22;10539;53.686;9.158;2022-12-18T00:05:47;-3.90;99.90
20759;DHT22;10539;53.686;9.158;2022-12-18T00:08:13;-3.80;99.90
20759;DHT22;10539;53.686;9.158;2022-12-18T00:10:39;-3.80;99.90
20759;DHT22;10539;53.686;9.158;2022-12-18T00:13:05;-3.80;99.90
20759;DHT22;10539;53.686;9.158;2022-12-18T00:15:34;-3.80;99.90
20759;DHT22;10539;53.686;9.158;2022-12-18T00:17:59;-3.80;99.90
20759;DHT22;10539;53.686;9.158;2022-12-18T00:20:25;-3.90;99.90
20759;DHT22;10539;53.686;9.158;2022-12-18T00:22:54;-3.90;99.90
20759;DHT22;10539;53.686;9.158;2022-12-18T00:25:20;-3.90;99.90
20759;DHT22;10539;53.686;9.158;2022-12-18T00:27:46;-3.90;99.90
20759;DHT22;10539;53.686;9.158;2022-12-18T00:30:12;-3.90;99.90
20759;DHT22;10539;53.686;9.158;2022-12-18T00:32:38;-4.00;99.90
20759;DHT22;10539;53.686;9.158;2022-12-18T00:35:05;-4.00;99.90
20759;DHT22;10539;53.686;9.158;2022-12-18T00:37:30;-4.00;99.90
20759;DHT22;10539;53.686;9.158;2022-12-18T00:39:56;-3.90;99.90
20759;DHT22;10539;53.686;9.158;2022-12-18T00:42:22;-3.90;99.90
20759;DHT22;10539;53.686;9.158;2022-12-18T00:45:06;-3.90;99.90
20759;DHT22;10539;53.686;9.158;2022-12-18T00:47:32;-4.00;99.90
20759;DHT22;10539;53.686;9.158;2022-12-18T00:49:58;-4.00;99.90
20759;DHT22;10539;53.686;9.158;2022-12-18T00:52:24;-4.00;99.90
20759;DHT22;10539;53.686;9.158;2022-12-18T00:54:50;-4.00;99.90
20759;DHT22;10539;53.686;9.158;2022-12-18T00:57:15;-4.00;99.90
20759;DHT22;10539;53.686;9.158;2022-12-18T00:59:41;-4.00;99.90
20759;DHT22;10539;53.686;9.158;2022-12-18T01:02:07;-4.00;99.90
20759;DHT22;10539;53.686;9.158;2022-12-18T01:04:33;-4.00;99.90
20759;DHT22;10539;53.686;9.158;2022-12-18T01:06:59;-4.00;99.90
20759;DHT22;10539;53.686;9.158;2022-12-18T01:09:24;-4.10;99.90
20759;DHT22;10539;53.686;9.158;2022-12-18T01:11:50;-4.10;99.90
20759;DHT22;10539;53.686;9.158;2022-12-18T01:14:16;-4.10;99.90
20759;DHT22;10539;53.686;9.158;2022-12-18T01:16:42;-4.10;99.90
20759;DHT22;10539;53.686;9.158;2022-12-18T01:19:07;-4.00;99.90
20759;DHT22;10539;53.686;9.158;2022-12-18T01:21:33;-4.00;99.90
20759;DHT22;10539;53.686;9.158;2022-12-18T01:23:59;-4.00;99.90
20759;DHT22;10539;53.686;9.158;2022-12-18T01:26:25;-4.00;99.90
20759;DHT22;10539;53.686;9.158;2022-12-18T01:28:51;-4.00;99.90
20759;DHT22;10539;53.686;9.158;2022-12-18T01:31:20;-4.00;99.90
20759;DHT22;10539;53.686;9.158;2022-12-18T01:33:46;-4.00;99.90
20759;DHT22;10539;53.686;9.158;2022-12-18T01:36:23;-4.00;99.90
20759;DHT22;10539;53.686;9.158;2022-12-18T01:38:50;-4.00;99.90
20759;DHT22;10539;53.686;9.158;2022-12-18T01:41:18;-4.00;99.90
20759;DHT22;10539;53.686;9.158;2022-12-18T01:43:57;-4.00;99.90
20759;DHT22;10539;53.686;9.158;2022-12-18T01:46:25;-4.00;99.90
20759;DHT22;10539;53.686;9.158;2022-12-18T01:48:56;-4.10;99.90
20759;DHT22;10539;53.686;9.158;2022-12-18T01:51:22;-4.10;99.90
20759;DHT22;10539;53.686;9.158;2022-12-18T01:53:48;-4.10;99.90
20759;DHT22;10539;53.686;9.158;2022-12-18T01:56:16;-4.00;99.90
20759;DHT22;10539;53.686;9.158;2022-12-18T01:59:02;-4.00;99.90
20759;DHT22;10539;53.686;9.158;2022-12-18T02:01:30;-4.00;99.90
20759;DHT22;10539;53.686;9.158;2022-12-18T02:03:56;-4.00;99.90
20759;DHT22;10539;53.686;9.158;2022-12-18T02:06:41;-4.00;99.90
20759;DHT22;10539;53.686;9.158;2022-12-18T02:09:18;-4.00;99.90
20759;DHT22;10539;53.686;9.158;2022-12-18T02:14:32;-4.00;99.90
20759;DHT22;10539;53.686;9.158;2022-12-18T02:17:21;-3.90;99.90
20759;DHT22;10539;53.686;9.158;2022-12-18T02:20:20;-3.90;99.90
20759;DHT22;10539;53.686;9.158;2022-12-18T02:23:29;-3.90;99.90
20759;DHT22;10539;53.686;9.158;2022-12-18T02:28:48;-4.00;99.90
20759;DHT22;10539;53.686;9.158;2022-12-18T02:31:21;-4.00;99.90
20759;DHT22;10539;53.686;9.158;2022-12-18T02:33:49;-4.00;99.90
20759;DHT22;10539;53.686;9.158;2022-12-18T02:36:16;-4.00;99.90
20759;DHT22;10539;53.686;9.158;2022-12-18T02:38:44;-4.00;99.90
20759;DHT22;10539;53.686;9.158;2022-12-18T02:41:12;-4.10;99.90
20759;DHT22;10539;53.686;9.158;2022-12-18T02:43:38;-4.10;99.90
20759;DHT22;10539;53.686;9.158;2022-12-18T02:46:31;-4.10;99.90
20759;DHT22;10539;53.686;9.158;2022-12-18T02:55:23;-4.20;99.90
20759;DHT22;10539;53.686;9.158;2022-12-18T02:58:01;-4.20;99.90
20759;DHT22;10539;53.686;9.158;2022-12-18T03:00:54;-4.20;99.90
20759;DHT22;10539;53.686;9.158;2022-12-18T03:03:27;-4.30;99.90
20759;DHT22;10539;53.686;9.158;2022-12-18T03:06:00;-4.30;99.90
20759;DHT22;10539;53.686;9.158;2022-12-18T03:08:29;-4.30;99.90
20759;DHT22;10539;53.686;9.158;2022-12-18T03:11:03;-4.30;99.90
20759;DHT22;10539;53.686;9.158;2022-12-18T03:13:45;-4.30;99.90
20759;DHT22;10539;53.686;9.158;2022-12-18T03:16:16;-4.30;99.90
20759;DHT22;10539;53.686;9.158;2022-12-18T03:18:46;-4.30;99.90
20759;DHT22;10539;53.686;9.158;2022-12-18T03:21:14;-4.30;99.90
20759;DHT22;10539;53.686;9.158;2022-12-18T03:23:44;-4.30;99.90
20759;DHT22;10539;53.686;9.158;2022-12-18T03:26:16;-4.30;99.90
20759;DHT22;10539;53.686;9.158;2022-12-18T03:28:47;-4.30;99.90
20759;DHT22;10539;53.686;9.158;2022-12-18T03:31:16;-4.30;99.90
20759;DHT22;10539;53.686;9.158;2022-12-18T03:33:53;-4.30;99.90
20759;DHT22;10539;53.686;9.158;2022-12-18T03:36:19;-4.40;99.90
20759;DHT22;10539;53.686;9.158;2022-12-18T03:38:45;-4.40;99.90
20759;DHT22;10539;53.686;9.158;2022-12-18T03:43:55;-4.50;99.90
20759;DHT22;10539;53.686;9.158;2022-12-18T03:46:33;-4.50;99.90
20759;DHT22;10539;53.686;9.158;2022-12-18T03:49:13;-4.60;99.90
20759;DHT22;10539;53.686;9.158;2022-12-18T03:52:03;-4.60;99.90
20759;DHT22;10539;53.686;9.158;2022-12-18T03:54:30;-4.70;99.90
20759;DHT22;10539;53.686;9.158;2022-12-18T03:57:08;-4.70;99.90
20759;DHT22;10539;53.686;9.158;2022-12-18T03:59:36;-4.80;99.90
20759;DHT22;10539;53.686;9.158;2022-12-18T04:02:04;-4.80;99.90
20759;DHT22;10539;53.686;9.158;2022-12-18T04:04:34;-4.80;99.90
20759;DHT22;10539;53.686;9.158;2022-12-18T04:07:02;-4.80;99.90
20759;DHT22;10539;53.686;9.158;2022-12-18T04:09:30;-4.80;99.90
20759;DHT22;10539;53.686;9.158;2022-12-18T04:11:56;-4.80;99.90
20759;DHT22;10539;53.686;9.158;2022-12-18T04:14:22;-4.80;99.90
20759;DHT22;10539;53.686;9.158;2022-12-18T04:16:48;-4.80;99.90
20759;DHT22;10539;53.686;9.158;2022-12-18T04:19:14;-4.80;99.90
20759;DHT22;10539;53.686;9.158;2022-12-18T04:21:40;-4.80;99.90
20759;DHT22;10539;53.686;9.158;2022-12-18T04:24:05;-4.80;99.90
20759;DHT22;10539;53.686;9.158;2022-12-18T04:26:31;-4.80;99.90
20759;DHT22;10539;53.686;9.158;2022-12-18T04:28:57;-4.80;99.90
20759;DHT22;10539;53.686;9.158;2022-12-18T04:31:22;-4.90;99.90
20759;DHT22;10539;53.686;9.158;2022-12-18T04:33:48;-4.90;99.90
20759;DHT22;10539;53.686;9.158;2022-12-18T04:36:14;-4.90;99.90
20759;DHT22;10539;53.686;9.158;2022-12-18T04:38:40;-5.00;99.90
20759;DHT22;10539;53.686;9.158;2022-12-18T04:41:06;-5.00;99.90
20759;DHT22;10539;53.686;9.158;2022-12-18T04:43:32;-5.10;99.90
20759;DHT22;10539;53.686;9.158;2022-12-18T04:46:05;-5.10;99.90
20759;DHT22;10539;53.686;9.158;2022-12-18T04:48:32;-5.10;99.90
20759;DHT22;10539;53.686;9.158;2022-12-18T04:50:58;-5.10;99.90
20759;DHT22;10539;53.686;9.158;2022-12-18T04:53:24;-5.20;99.90
20759;DHT22;10539;53.686;9.158;2022-12-18T04:55:50;-5.20;99.90
20759;DHT22;10539;53.686;9.158;2022-12-18T04:58:16;-5.20;99.90
20759;DHT22;10539;53.686;9.158;2022-12-18T05:00:42;-5.20;99.90
20759;DHT22;10539;53.686;9.158;2022-12-18T05:03:09;-5.10;99.90
20759;DHT22;10539;53.686;9.158;2022-12-18T05:05:35;-5.10;99.90
20759;DHT22;10539;53.686;9.158;2022-12-18T05:08:01;-5.10;99.90
20759;DHT22;10539;53.686;9.158;2022-12-18T05:10:26;-5.20;99.90
20759;DHT22;10539;53.686;9.158;2022-12-18T05:12:52;-5.10;99.90
20759;DHT22;10539;53.686;9.158;2022-12-18T05:15:34;-5.10;99.90
20759;DHT22;10539;53.686;9.158;2022-12-18T05:18:00;-5.20;99.90
20759;DHT22;10539;53.686;9.158;2022-12-18T05:20:29;-5.20;99.90
20759;DHT22;10539;53.686;9.158;2022-12-18T05:22:55;-5.20;99.90
20759;DHT22;10539;53.686;9.158;2022-12-18T05:25:22;-5.20;99.90
20759;DHT22;10539;53.686;9.158;2022-12-18T05:27:48;-5.20;99.90
20759;DHT22;10539;53.686;9.158;2022-12-18T05:30:14;-5.20;99.90
20759;DHT22;10539;53.686;9.158;2022-12-18T05:32:41;-5.20;99.90
20759;DHT22;10539;53.686;9.158;2022-12-18T05:35:08;-5.20;99.90
20759;DHT22;10539;53.686;9.158;2022-12-18T05:37:35;-5.20;99.90
20759;DHT22;10539;53.686;9.158;2022-12-18T05:40:01;-5.20;99.90
20759;DHT22;10539;53.686;9.158;2022-12-18T05:42:27;-5.20;99.90
20759;DHT22;10539;53.686;9.158;2022-12-18T05:44:53;-5.20;99.90
20759;DHT22;10539;53.686;9.158;2022-12-18T05:47:19;-5.20;99.90
20759;DHT22;10539;53.686;9.158;2022-12-18T05:49:45;-5.20;99.90
20759;DHT22;10539;53.686;9.158;2022-12-18T05:52:11;-5.30;99.90
20759;DHT22;10539;53.686;9.158;2022-12-18T05:54:37;-5.30;99.90
20759;DHT22;10539;53.686;9.158;2022-12-18T05:57:04;-5.30;99.90
20759;DHT22;10539;53.686;9.158;2022-12-18T05:59:33;-5.30;99.90
20759;DHT22;10539;53.686;9.158;2022-12-18T06:01:59;-5.30;99.90
20759;DHT22;10539;53.686;9.158;2022-12-18T06:04:27;-5.30;99.90
20759;DHT22;10539;53.686;9.158;2022-12-18T06:06:56;-5.40;99.90
20759;DHT22;10539;53.686;9.158;2022-12-18T06:09:23;-5.40;99.90
20759;DHT22;10539;53.686;9.158;2022-12-18T06:11:51;-5.40;99.90
20759;DHT22;10539;53.686;9.158;2022-12-18T06:14:18;-5.40;99.90
20759;DHT22;10539;53.686;9.158;2022-12-18T06:16:45;-5.40;99.90
20759;DHT22;10539;53.686;9.158;2022-12-18T06:19:15;-5.40;99.90
20759;DHT22;10539;53.686;9.158;2022-12-18T06:21:41;-5.50;99.90
20759;DHT22;10539;53.686;9.158;2022-12-18T06:24:08;-5.50;99.90
20759;DHT22;10539;53.686;9.158;2022-12-18T06:26:33;-5.50;99.90
20759;DHT22;10539;53.686;9.158;2022-12-18T06:28:59;-5.50;99.90
20759;DHT22;10539;53.686;9.158;2022-12-18T06:31:25;-5.50;99.90
20759;DHT22;10539;53.686;9.158;2022-12-18T06:33:52;-5.50;99.90
20759;DHT22;10539;53.686;9.158;2022-12-18T06:36:18;-5.50;99.90
20759;DHT22;10539;53.686;9.158;2022-12-18T06:38:45;-5.50;99.90
20759;DHT22;10539;53.686;9.158;2022-12-18T06:41:13;-5.50;99.90
20759;DHT22;10539;53.686;9.158;2022-12-18T06:43:39;-5.50;99.90
20759;DHT22;10539;53.686;9.158;2022-12-18T06:46:05;-5.50;99.90
20759;DHT22;10539;53.686;9.158;2022-12-18T06:48:32;-5.50;99.90
20759;DHT22;10539;53.686;9.158;2022-12-18T06:50:58;-5.50;99.90
20759;DHT22;10539;53.686;9.158;2022-12-18T06:53:23;-5.50;99.90
20759;DHT22;10539;53.686;9.158;2022-12-18T06:55:49;-5.40;99.90
20759;DHT22;10539;53.686;9.158;2022-12-18T06:58:15;-5.40;99.90
20759;DHT22;10539;53.686;9.158;2022-12-18T07:00:41;-5.40;99.90
20759;DHT22;10539;53.686;9.158;2022-12-18T07:03:07;-5.40;99.90
20759;DHT22;10539;53.686;9.158;2022-12-18T07:05:33;-5.40;99.90
20759;DHT22;10539;53.686;9.158;2022-12-18T07:07:59;-5.40;99.90
20759;DHT22;10539;53.686;9.158;2022-12-18T07:10:25;-5.40;99.90
20759;DHT22;10539;53.686;9.158;2022-12-18T07:12:51;-5.40;99.90
20759;DHT22;10539;53.686;9.158;2022-12-18T07:15:16;-5.40;99.90
20759;DHT22;10539;53.686;9.158;2022-12-18T07:17:42;-5.40;99.90
20759;DHT22;10539;53.686;9.158;2022-12-18T07:20:08;-5.40;99.90
20759;DHT22;10539;53.686;9.158;2022-12-18T07:22:34;-5.40;99.90
20759;DHT22;10539;53.686;9.158;2022-12-18T07:25:00;-5.40;99.90
20759;DHT22;10539;53.686;9.158;2022-12-18T07:27:26;-5.40;99.90
20759;DHT22;10539;53.686;9.158;2022-12-18T07:29:51;-5.40;99.90
20759;DHT22;10539;53.686;9.158;2022-12-18T07:32:17;-5.40;99.90
20759;DHT22;10539;53.686;9.158;2022-12-18T07:34:43;-5.40;99.90
20759;DHT22;10539;53.686;9.158;2022-12-18T07:37:09;-5.40;99.90
20759;DHT22;10539;53.686;9.158;2022-12-18T07:39:35;-5.40;99.90
20759;DHT22;10539;53.686;9.158;2022-12-18T07:42:00;-5.50;99.90
20759;DHT22;10539;53.686;9.158;2022-12-18T07:44:59;-5.40;99.90
20759;DHT22;10539;53.686;9.158;2022-12-18T07:47:25;-5.50;99.90
20759;DHT22;10539;53.686;9.158;2022-12-18T07:49:51;-5.40;99.90
20759;DHT22;10539;53.686;9.158;2022-12-18T07:52:17;-5.40;99.90
20759;DHT22;10539;53.686;9.158;2022-12-18T07:54:43;-5.40;99.90
20759;DHT22;10539;53.686;9.158;2022-12-18T07:57:09;-5.40;99.90
20759;DHT22;10539;53.686;9.158;2022-12-18T07:59:35;-5.40;99.90
20759;DHT22;10539;53.686;9.158;2022-12-18T08:02:00;-5.40;99.90
20759;DHT22;10539;53.686;9.158;2022-12-18T08:04:26;-5.40;99.90
20759;DHT22;10539;53.686;9.158;2022-12-18T08:06:52;-5.30;99.90
20759;DHT22;10539;53.686;9.158;2022-12-18T08:09:22;-5.30;99.90
20759;DHT22;10539;53.686;9.158;2022-12-18T08:11:48;-5.30;99.90
20759;DHT22;10539;53.686;9.158;2022-12-18T08:14:14;-5.30;99.90
20759;DHT22;10539;53.686;9.158;2022-12-18T08:16:40;-5.30;99.90
20759;DHT22;10539;53.686;9.158;2022-12-18T08:19:05;-5.30;99.90
20759;DHT22;10539;53.686;9.158;2022-12-18T08:21:31;-5.30;99.90
20759;DHT22;10539;53.686;9.158;2022-12-18T08:23:59;-5.20;99.90
20759;DHT22;10539;53.686;9.158;2022-12-18T08:26:27;-5.20;99.90
20759;DHT22;10539;53.686;9.158;2022-12-18T08:28:58;-5.20;99.90
20759;DHT22;10539;53.686;9.158;2022-12-18T08:31:25;-5.10;99.90
20759;DHT22;10539;53.686;9.158;2022-12-18T08:33:52;-5.10;99.90
20759;DHT22;10539;53.686;9.158;2022-12-18T08:36:18;-5.10;99.90
20759;DHT22;10539;53.686;9.158;2022-12-18T08:38:45;-5.10;99.90
20759;DHT22;10539;53.686;9.158;2022-12-18T08:41:13;-5.00;99.90
20759;DHT22;10539;53.686;9.158;2022-12-18T08:43:39;-5.00;99.90
20759;DHT22;10539;53.686;9.158;2022-12-18T08:46:25;-4.90;99.90
20759;DHT22;10539;53.686;9.158;2022-12-18T08:48:52;-4.90;99.90
20759;DHT22;10539;53.686;9.158;2022-12-18T08:51:19;-4.80;99.90
20759;DHT22;10539;53.686;9.158;2022-12-18T08:53:45;-4.80;99.90
20759;DHT22;10539;53.686;9.158;2022-12-18T08:56:12;-4.70;99.90
20759;DHT22;10539;53.686;9.158;2022-12-18T08:58:38;-4.70;99.90
20759;DHT22;10539;53.686;9.158;2022-12-18T09:01:06;-4.60;99.90
20759;DHT22;10539;53.686;9.158;2022-12-18T09:03:32;-4.50;99.90
20759;DHT22;10539;53.686;9.158;2022-12-18T09:05:58;-4.50;99.90
20759;DHT22;10539;53.686;9.158;2022-12-18T09:08:25;-4.40;99.90
20759;DHT22;10539;53.686;9.158;2022-12-18T09:10:51;-4.30;99.90
20759;DHT22;10539;53.686;9.158;2022-12-18T09:13:17;-4.20;99.90
20759;DHT22;10539;53.686;9.158;2022-12-18T09:15:52;-4.20;99.90
20759;DHT22;10539;53.686;9.158;2022-12-18T09:18:19;-4.10;99.90
20759;DHT22;10539;53.686;9.158;2022-12-18T09:20:45;-4.00;99.90
20759;DHT22;10539;53.686;9.158;2022-12-18T09:23:12;-3.90;99.90
20759;DHT22;10539;53.686;9.158;2022-12-18T09:25:38;-3.90;99.90
20759;DHT22;10539;53.686;9.158;2022-12-18T09:28:10;-3.80;99.90
20759;DHT22;10539;53.686;9.158;2022-12-18T09:30:49;-3.80;99.90
20759;DHT22;10539;53.686;9.158;2022-12-18T09:33:15;-3.70;99.90
20759;DHT22;10539;53.686;9.158;2022-12-18T09:35:43;-3.70;99.90
20759;DHT22;10539;53.686;9.158;2022-12-18T09:38:16;-3.60;99.90
20759;DHT22;10539;53.686;9.158;2022-12-18T09:40:50;-3.50;99.90
20759;DHT22;10539;53.686;9.158;2022-12-18T09:43:26;-3.40;99.90
20759;DHT22;10539;53.686;9.158;2022-12-18T09:46:01;-3.40;99.90
20759;DHT22;10539;53.686;9.158;2022-12-18T09:48:34;-3.40;99.90
20759;DHT22;10539;53.686;9.158;2022-12-18T09:51:23;-3.30;99.90
20759;DHT22;10539;53.686;9.158;2022-12-18T09:53:57;-3.30;99.90
20759;DHT22;10539;53.686;9.158;2022-12-18T09:56:25;-3.30;99.90
20759;DHT22;10539;53.686;9.158;2022-12-18T09:58:58;-3.20;99.90
20759;DHT22;10539;53.686;9.158;2022-12-18T10:01:26;-3.20;99.90
20759;DHT22;10539;53.686;9.158;2022-12-18T10:03:53;-3.10;99.90
20759;DHT22;10539;53.686;9.158;2022-12-18T10:06:32;-3.10;99.90
20759;DHT22;10539;53.686;9.158;2022-12-18T10:19:43;-2.90;99.90
20759;DHT22;10539;53.686;9.158;2022-12-18T10:25:32;-2.80;99.90
20759;DHT22;10539;53.686;9.158;2022-12-18T10:28:08;-2.80;99.90
20759;DHT22;10539;53.686;9.158;2022-12-18T10:30:35;-2.70;99.90
20759;DHT22;10539;53.686;9.158;2022-12-18T10:33:04;-2.70;99.90
20759;DHT22;10539;53.686;9.158;2022-12-18T10:35:31;-2.70;99.90
20759;DHT22;10539;53.686;9.158;2022-12-18T10:40:57;-2.60;99.90
20759;DHT22;10539;53.686;9.158;2022-12-18T10:43:36;-2.60;99.90
20759;DHT22;10539;53.686;9.158;2022-12-18T10:48:54;-2.60;99.90
20759;DHT22;10539;53.686;9.158;2022-12-18T10:51:25;-2.50;99.90
20759;DHT22;10539;53.686;9.158;2022-12-18T10:54:00;-2.40;99.90
20759;DHT22;10539;53.686;9.158;2022-12-18T10:56:28;-2.40;99.90
20759;DHT22;10539;53.686;9.158;2022-12-18T10:59:03;-2.40;99.90
20759;DHT22;10539;53.686;9.158;2022-12-18T11:04:17;-2.30;99.90
20759;DHT22;10539;53.686;9.158;2022-12-18T11:07:10;-2.30;99.90
20759;DHT22;10539;53.686;9.158;2022-12-18T11:09:40;-2.20;99.90
20759;DHT22;10539;53.686;9.158;2022-12-18T11:12:19;-2.20;99.90
20759;DHT22;10539;53.686;9.158;2022-12-18T11:14:50;-2.10;99.90
20759;DHT22;10539;53.686;9.158;2022-12-18T11:17:20;-2.10;99.90
20759;DHT22;10539;53.686;9.158;2022-12-18T11:19:53;-2.10;99.90
20759;DHT22;10539;53.686;9.158;2022-12-18T11:27:48;-2.00;99.90
20759;DHT22;10539;53.686;9.158;2022-12-18T11:30:29;-1.90;99.90
20759;DHT22;10539;53.686;9.158;2022-12-18T11:36:02;-1.80;99.90
20759;DHT22;10539;53.686;9.158;2022-12-18T11:38:37;-1.80;99.90
20759;DHT22;10539;53.686;9.158;2022-12-18T11:43:53;-1.80;99.90
20759;DHT22;10539;53.686;9.158;2022-12-18T11:46:38;-1.70;99.90
20759;DHT22;10539;53.686;9.158;2022-12-18T11:49:25;-1.70;99.90
20759;DHT22;10539;53.686;9.158;2022-12-18T11:52:39;-1.70;99.90
20759;DHT22;10539;53.686;9.158;2022-12-18T11:54:45;-1.60;99.90
20759;DHT22;10539;53.686;9.158;2022-12-18T11:57:25;-1.60;99.90
20759;DHT22;10539;53.686;9.158;2022-12-18T12:08:44;-1.50;99.90
20759;DHT22;10539;53.686;9.158;2022-12-18T12:11:39;-1.50;99.90
20759;DHT22;10539;53.686;9.158;2022-12-18T12:25:18;-1.30;99.90
20759;DHT22;10539;53.686;9.158;2022-12-18T12:30:35;-1.30;99.90
20759;DHT22;10539;53.686;9.158;2022-12-18T12:38:41;-1.20;99.90
20759;DHT22;10539;53.686;9.158;2022-12-18T12:41:14;-1.20;99.90
20759;DHT22;10539;53.686;9.158;2022-12-18T12:44:03;-1.20;99.90
20759;DHT22;10539;53.686;9.158;2022-12-18T12:46:33;-1.10;99.90
20759;DHT22;10539;53.686;9.158;2022-12-18T12:49:04;-1.10;99.90
20759;DHT22;10539;53.686;9.158;2022-12-18T12:51:40;-1.10;99.90
20759;DHT22;10539;53.686;9.158;2022-12-18T12:54:19;-1.00;99.90
20759;DHT22;10539;53.686;9.158;2022-12-18T12:57:00;-1.00;99.90
20759;DHT22;10539;53.686;9.158;2022-12-18T13:02:42;-1.00;99.90
20759;DHT22;10539;53.686;9.158;2022-12-18T13:05:30;-1.00;99.90
20759;DHT22;10539;53.686;9.158;2022-12-18T13:08:06;-1.10;99.90
20759;DHT22;10539;53.686;9.158;2022-12-18T13:10:38;-1.10;99.90
20759;DHT22;10539;53.686;9.158;2022-12-18T13:13:09;-1.10;99.90
20759;DHT22;10539;53.686;9.158;2022-12-18T13:15:42;-1.10;99.90
20759;DHT22;10539;53.686;9.158;2022-12-18T13:20:40;-1.10;99.90
20759;DHT22;10539;53.686;9.158;2022-12-18T13:31:11;-1.10;99.90
20759;DHT22;10539;53.686;9.158;2022-12-18T13:33:45;-1.10;99.90
20759;DHT22;10539;53.686;9.158;2022-12-18T13:36:37;-1.10;99.90
20759;DHT22;10539;53.686;9.158;2022-12-18T13:41:43;-1.10;99.90
20759;DHT22;10539;53.686;9.158;2022-12-18T13:44:31;-1.10;99.90
20759;DHT22;10539;53.686;9.158;2022-12-18T13:46:59;-1.10;99.90
20759;DHT22;10539;53.686;9.158;2022-12-18T13:49:37;-1.10;99.90
20759;DHT22;10539;53.686;9.158;2022-12-18T13:52:16;-1.00;99.90
20759;DHT22;10539;53.686;9.158;2022-12-18T13:54:47;-1.00;99.90
20759;DHT22;10539;53.686;9.158;2022-12-18T13:57:35;-1.10;99.90
20759;DHT22;10539;53.686;9.158;2022-12-18T14:02:47;-1.00;99.90
20759;DHT22;10539;53.686;9.158;2022-12-18T14:05:22;-1.00;99.90
20759;DHT22;10539;53.686;9.158;2022-12-18T14:07:49;-1.00;99.90
20759;DHT22;10539;53.686;9.158;2022-12-18T14:10:15;-1.10;99.90
20759;DHT22;10539;53.686;9.158;2022-12-18T14:12:45;-1.10;99.90
20759;DHT22;10539;53.686;9.158;2022-12-18T14:15:30;-1.10;99.90
20759;DHT22;10539;53.686;9.158;2022-12-18T14:18:00;-1.10;99.90
20759;DHT22;10539;53.686;9.158;2022-12-18T14:20:31;-1.00;99.90
20759;DHT22;10539;53.686;9.158;2022-12-18T14:22:58;-1.00;99.90
20759;DHT22;10539;53.686;9.158;2022-12-18T14:25:27;-1.00;99.90
20759;DHT22;10539;53.686;9.158;2022-12-18T14:28:17;-1.00;99.90
20759;DHT22;10539;53.686;9.158;2022-12-18T14:30:45;-1.00;99.90
20759;DHT22;10539;53.686;9.158;2022-12-18T14:36:04;-1.10;99.90
20759;DHT22;10539;53.686;9.158;2022-12-18T14:41:01;-1.10;99.90
20759;DHT22;10539;53.686;9.158;2022-12-18T14:43:29;-1.10;99.90
20759;DHT22;10539;53.686;9.158;2022-12-18T14:45:57;-1.10;99.90
20759;DHT22;10539;53.686;9.158;2022-12-18T14:48:42;-1.10;99.90
20759;DHT22;10539;53.686;9.158;2022-12-18T14:51:19;-1.10;99.90
20759;DHT22;10539;53.686;9.158;2022-12-18T14:53:46;-1.10;99.90
20759;DHT22;10539;53.686;9.158;2022-12-18T14:56:22;-1.10;99.90
20759;DHT22;10539;53.686;9.158;2022-12-18T14:58:52;-1.10;99.90
20759;DHT22;10539;53.686;9.158;2022-12-18T15:01:39;-1.10;99.90
20759;DHT22;10539;53.686;9.158;2022-12-18T15:07:08;-1.20;99.90
20759;DHT22;10539;53.686;9.158;2022-12-18T15:09:34;-1.20;99.90
20759;DHT22;10539;53.686;9.158;2022-12-18T15:12:01;-1.20;99.90
20759;DHT22;10539;53.686;9.158;2022-12-18T15:16:56;-1.20;99.90
20759;DHT22;10539;53.686;9.158;2022-12-18T15:19:37;-1.20;99.90
20759;DHT22;10539;53.686;9.158;2022-12-18T15:22:04;-1.10;99.90
20759;DHT22;10539;53.686;9.158;2022-12-18T15:24:31;-1.10;99.90
20759;DHT22;10539;53.686;9.158;2022-12-18T15:26:59;-1.10;99.90
20759;DHT22;10539;53.686;9.158;2022-12-18T15:29:25;-1.10;99.90
20759;DHT22;10539;53.686;9.158;2022-12-18T15:32:04;-1.10;99.90
20759;DHT22;10539;53.686;9.158;2022-12-18T15:34:30;-1.10;99.90
20759;DHT22;10539;53.686;9.158;2022-12-18T15:36:57;-1.00;99.90
20759;DHT22;10539;53.686;9.158;2022-12-18T15:39:22;-1.00;99.90
20759;DHT22;10539;53.686;9.158;2022-12-18T15:41:48;-1.00;99.90
20759;DHT22;10539;53.686;9.158;2022-12-18T15:44:33;-1.00;99.90
20759;DHT22;10539;53.686;9.158;2022-12-18T15:46:59;-1.00;99.90
20759;DHT22;10539;53.686;9.158;2022-12-18T15:49:25;-1.00;99.90
20759;DHT22;10539;53.686;9.158;2022-12-18T15:51:57;-1.00;99.90
20759;DHT22;10539;53.686;9.158;2022-12-18T15:54:23;-1.00;99.90
20759;DHT22;10539;53.686;9.158;2022-12-18T15:57:11;-1.00;99.90
20759;DHT22;10539;53.686;9.158;2022-12-18T15:59:51;-1.00;99.90
20759;DHT22;10539;53.686;9.158;2022-12-18T16:02:19;-1.00;99.90
20759;DHT22;10539;53.686;9.158;2022-12-18T16:04:45;-1.00;99.90
20759;DHT22;10539;53.686;9.158;2022-12-18T16:07:12;-1.00;99.90
20759;DHT22;10539;53.686;9.158;2022-12-18T16:09:37;-1.00;99.90
20759;DHT22;10539;53.686;9.158;2022-12-18T16:12:05;-1.00;99.90
20759;DHT22;10539;53.686;9.158;2022-12-18T16:14:32;-1.00;99.90
20759;DHT22;10539;53.686;9.158;2022-12-18T16:17:03;-1.00;99.90
20759;DHT22;10539;53.686;9.158;2022-12-18T16:19:29;-1.00;99.90
20759;DHT22;10539;53.686;9.158;2022-12-18T16:21:56;-1.00;99.90
20759;DHT22;10539;53.686;9.158;2022-12-18T16:24:25;-1.00;99.90
20759;DHT22;10539;53.686;9.158;2022-12-18T16:26:52;-1.00;99.90
20759;DHT22;10539;53.686;9.158;2022-12-18T16:29:19;-1.00;99.90
20759;DHT22;10539;53.686;9.158;2022-12-18T16:31:45;-1.00;99.90
20759;DHT22;10539;53.686;9.158;2022-12-18T16:36:44;-1.00;99.90
20759;DHT22;10539;53.686;9.158;2022-12-18T16:39:09;-1.00;99.90
20759;DHT22;10539;53.686;9.158;2022-12-18T16:41:35;-1.00;99.90
20759;DHT22;10539;53.686;9.158;2022-12-18T16:44:01;-1.00;99.90
20759;DHT22;10539;53.686;9.158;2022-12-18T16:46:27;-1.00;99.90
20759;DHT22;10539;53.686;9.158;2022-12-18T16:48:53;-1.00;99.90
20759;DHT22;10539;53.686;9.158;2022-12-18T16:51:19;-1.00;99.90
20759;DHT22;10539;53.686;9.158;2022-12-18T16:53:45;-1.10;99.90
20759;DHT22;10539;53.686;9.158;2022-12-18T16:56:10;-1.10;99.90
20759;DHT22;10539;53.686;9.158;2022-12-18T16:58:36;-1.10;99.90
20759;DHT22;10539;53.686;9.158;2022-12-18T17:01:10;-1.10;99.90
20759;DHT22;10539;53.686;9.158;2022-12-18T17:03:35;-1.20;99.90
20759;DHT22;10539;53.686;9.158;2022-12-18T17:06:03;-1.20;99.90
20759;DHT22;10539;53.686;9.158;2022-12-18T17:08:29;-1.20;99.90
20759;DHT22;10539;53.686;9.158;2022-12-18T17:10:54;-1.20;99.90
20759;DHT22;10539;53.686;9.158;2022-12-18T17:13:20;-1.20;99.90
20759;DHT22;10539;53.686;9.158;2022-12-18T17:15:50;-1.20;99.90
20759;DHT22;10539;53.686;9.158;2022-12-18T17:18:15;-1.20;99.90
20759;DHT22;10539;53.686;9.158;2022-12-18T17:20:41;-1.20;99.90
20759;DHT22;10539;53.686;9.158;2022-12-18T17:23:07;-1.20;99.90
20759;DHT22;10539;53.686;9.158;2022-12-18T17:25:33;-1.20;99.90
20759;DHT22;10539;53.686;9.158;2022-12-18T17:27:58;-1.20;99.90
20759;DHT22;10539;53.686;9.158;2022-12-18T17:30:24;-1.20;99.90
20759;DHT22;10539;53.686;9.158;2022-12-18T17:32:50;-1.30;99.90
20759;DHT22;10539;53.686;9.158;2022-12-18T17:35:16;-1.30;99.90